No particular awareness of the weather is required.    There are no Weather-warnings


Meteo18 Weather Cam more information Meteo18 Weather Cam


Thunder radar more information blitzortung!


Rain radar more information rain snow radar


Visit our other weather sites:

Template documentation
and downloads

And another site



Weather Underground History page Text

Daily Summary for October 16, 2017 Units:  Both    English   Metric
« Previous Day
Next Day »
Daily Weekly Monthly Yearly Custom
  High: Low: Average:
Temperature: 76.1 °F /  24.5 °C 58.5 °F /  14.7 °C 64.6 °F /  18.1 °C
Dew Point: 59.5 °F /  15.3 °C 55.8 °F /  13.2 °C 57.9 °F /  14.4 °C
Humidity: 91 % 55 % 80 %
Wind Speed: 1 mph /  1.6 km/h - -16.3 mph /  -26.3 km/h
Wind Gust: 2 mph /  3.2 km/h - -
Wind:- -
Pressure: 30.3 in /  1024.6 hPa 30.2 in /  1022.2 hPa -
Precipitation: 0 in /  0.0 mm    
Historical Graphs
 
 
Tabular Data for October 16, 2017
Time Temperature Dew Point Pressure Wind Wind Speed Wind Gust Humidity Rainfall Rate (Hourly)
18:12 76.1 °F /  24.5 °C 58.8 °F /  14.9 °C 30.2 in /  1022.2 hPa North -999.5 mph /  -1608.8 km/h -998.7 mph /  -1607.4 km/h 55 % 0 in /  0 mm
18:32 75 °F /  23.9 °C 58.8 °F /  14.9 °C 30.2 in /  1022.2 hPa Calm   -998.7 mph /  -1607.4 km/h 57 % 0 in /  0 mm
18:37 74.3 °F /  23.5 °C 59 °F /  15.0 °C 30.2 in /  1022.6 hPa Calm   2 mph /  3.2 km/h 59 % 0 in /  0.0 mm
18:42 73.6 °F /  23.1 °C 59.4 °F /  15.2 °C 30.2 in /  1022.6 hPa Calm   2 mph /  3.2 km/h 61 % 0 in /  0.0 mm
18:47 73 °F /  22.8 °C 59.2 °F /  15.1 °C 30.2 in /  1022.6 hPa Calm   2 mph /  3.2 km/h 62 % 0 in /  0.0 mm
18:52 72.3 °F /  22.4 °C 59 °F /  15.0 °C 30.2 in /  1022.6 hPa South 1 mph /  1.6 km/h 1 mph /  1.6 km/h 63 % 0 in /  0.0 mm
18:57 72 °F /  22.2 °C 59.2 °F /  15.1 °C 30.2 in /  1022.9 hPa Calm   1 mph /  1.6 km/h 64 % 0 in /  0.0 mm
19:02 71.2 °F /  21.8 °C 59.4 °F /  15.2 °C 30.2 in /  1022.9 hPa Calm   1 mph /  1.6 km/h 66 % 0 in /  0.0 mm
19:07 71.1 °F /  21.7 °C 59.5 °F /  15.3 °C 30.2 in /  1022.9 hPa Calm   1 mph /  1.6 km/h 67 % 0 in /  0.0 mm
19:17 70.5 °F /  21.4 °C 59.4 °F /  15.2 °C 30.2 in /  1022.9 hPa Calm   1 mph /  1.6 km/h 68 % 0 in /  0.0 mm
19:22 70.2 °F /  21.2 °C 59.2 °F /  15.1 °C 30.2 in /  1022.9 hPa Calm   1 mph /  1.6 km/h 68 % 0 in /  0.0 mm
19:32 69.8 °F /  21.0 °C 59.2 °F /  15.1 °C 30.2 in /  1022.9 hPa Calm   1 mph /  1.6 km/h 69 % 0 in /  0.0 mm
19:37 69.6 °F /  20.9 °C 59 °F /  15.0 °C 30.2 in /  1023.2 hPa Calm   1 mph /  1.6 km/h 69 % 0 in /  0.0 mm
19:42 69.1 °F /  20.6 °C 58.8 °F /  14.9 °C 30.2 in /  1023.2 hPa Calm   1 mph /  1.6 km/h 70 % 0 in /  0.0 mm
19:47 68.2 °F /  20.1 °C 58.8 °F /  14.9 °C 30.2 in /  1023.2 hPa Calm   1 mph /  1.6 km/h 72 % 0 in /  0.0 mm
19:52 67.5 °F /  19.7 °C 58.5 °F /  14.7 °C 30.2 in /  1023.2 hPa Calm     73 % 0 in /  0.0 mm
19:57 67.1 °F /  19.5 °C 58.8 °F /  14.9 °C 30.2 in /  1023.2 hPa Calm   2 mph /  3.2 km/h 75 % 0 in /  0.0 mm
20:02 67.5 °F /  19.7 °C 58.8 °F /  14.9 °C 30.2 in /  1023.2 hPa Calm   2 mph /  3.2 km/h 74 % 0 in /  0.0 mm
20:07 67.5 °F /  19.7 °C 58.8 °F /  14.9 °C 30.2 in /  1023.2 hPa Calm   2 mph /  3.2 km/h 74 % 0 in /  0.0 mm
20:12 67.3 °F /  19.6 °C 59 °F /  15.0 °C 30.2 in /  1023.2 hPa Calm   1 mph /  1.6 km/h 75 % 0 in /  0.0 mm
20:17 66.6 °F /  19.2 °C 58.8 °F /  14.9 °C 30.2 in /  1023.2 hPa Calm   1 mph /  1.6 km/h 76 % 0 in /  0.0 mm
20:22 66 °F /  18.9 °C 58.6 °F /  14.8 °C 30.2 in /  1023.2 hPa Calm   1 mph /  1.6 km/h 77 % 0 in /  0.0 mm
20:27 65.8 °F /  18.8 °C 58.8 °F /  14.9 °C 30.2 in /  1023.2 hPa Calm   1 mph /  1.6 km/h 78 % 0 in /  0.0 mm
20:32 65.5 °F /  18.6 °C 58.8 °F /  14.9 °C 30.2 in /  1023.2 hPa Calm     79 % 0 in /  0.0 mm
20:42 64.9 °F /  18.3 °C 58.6 °F /  14.8 °C 30.2 in /  1023.6 hPa Calm     80 % 0 in /  0.0 mm
20:47 64.6 °F /  18.1 °C 58.6 °F /  14.8 °C 30.2 in /  1023.6 hPa Calm     81 % 0 in /  0.0 mm
20:52 64 °F /  17.8 °C 58.1 °F /  14.5 °C 30.2 in /  1023.6 hPa Calm     81 % 0 in /  0.0 mm
20:57 63.7 °F /  17.6 °C 58.1 °F /  14.5 °C 30.2 in /  1023.6 hPa Calm     82 % 0 in /  0.0 mm
21:02 63.5 °F /  17.5 °C 58.3 °F /  14.6 °C 30.2 in /  1023.6 hPa Calm     83 % 0 in /  0.0 mm
21:12 63.5 °F /  17.5 °C 57.9 °F /  14.4 °C 30.2 in /  1023.6 hPa Calm     82 % 0 in /  0.0 mm
21:17 63.3 °F /  17.4 °C 58.1 °F /  14.5 °C 30.2 in /  1023.6 hPa Calm     83 % 0 in /  0.0 mm
21:22 63 °F /  17.2 °C 58.1 °F /  14.5 °C 30.2 in /  1023.6 hPa Calm     84 % 0 in /  0.0 mm
21:27 62.8 °F /  17.1 °C 57.9 °F /  14.4 °C 30.2 in /  1023.6 hPa Calm     84 % 0 in /  0.0 mm
21:32 62.6 °F /  17.0 °C 58.1 °F /  14.5 °C 30.2 in /  1023.6 hPa Calm     85 % 0 in /  0.0 mm
21:37 62.8 °F /  17.1 °C 58.3 °F /  14.6 °C 30.2 in /  1023.6 hPa Calm     85 % 0 in /  0.0 mm
21:42 62.6 °F /  17.0 °C 58.1 °F /  14.5 °C 30.2 in /  1023.9 hPa Calm     85 % 0 in /  0.0 mm
21:47 62.4 °F /  16.9 °C 57.9 °F /  14.4 °C 30.2 in /  1023.6 hPa Calm     85 % 0 in /  0.0 mm
21:52 62.2 °F /  16.8 °C 57.7 °F /  14.3 °C 30.2 in /  1023.9 hPa Calm     85 % 0 in /  0.0 mm
21:57 62.2 °F /  16.8 °C 57.9 °F /  14.4 °C 30.2 in /  1023.9 hPa Calm     86 % 0 in /  0.0 mm
22:02 62.1 °F /  16.7 °C 57.7 °F /  14.3 °C 30.2 in /  1023.9 hPa Calm     86 % 0 in /  0.0 mm
22:12 61.9 °F /  16.6 °C 57.6 °F /  14.2 °C 30.2 in /  1023.9 hPa Calm     86 % 0 in /  0.0 mm
22:17 61.3 °F /  16.3 °C 57.4 °F /  14.1 °C 30.2 in /  1023.9 hPa Calm     87 % 0 in /  0.0 mm
22:22 61 °F /  16.1 °C 57 °F /  13.9 °C 30.2 in /  1023.9 hPa Calm     87 % 0 in /  0.0 mm
22:32 61 °F /  16.1 °C 57.4 °F /  14.1 °C 30.2 in /  1023.9 hPa Calm     88 % 0 in /  0.0 mm
22:37 60.6 °F /  15.9 °C 57 °F /  13.9 °C 30.3 in /  1024.3 hPa Calm     88 % 0 in /  0.0 mm
22:42 60.4 °F /  15.8 °C 56.8 °F /  13.8 °C 30.3 in /  1024.3 hPa Calm     88 % 0 in /  0.0 mm
22:47 60.3 °F /  15.7 °C 57 °F /  13.9 °C 30.3 in /  1024.3 hPa Calm     89 % 0 in /  0.0 mm
22:52 60.1 °F /  15.6 °C 56.8 °F /  13.8 °C 30.3 in /  1024.3 hPa Calm     89 % 0 in /  0.0 mm
22:57 59.9 °F /  15.5 °C 56.7 °F /  13.7 °C 30.3 in /  1024.3 hPa Calm     89 % 0 in /  0.0 mm
23:02 59.5 °F /  15.3 °C 56.7 °F /  13.7 °C 30.3 in /  1024.3 hPa Calm     90 % 0 in /  0.0 mm
23:07 59.5 °F /  15.3 °C 56.7 °F /  13.7 °C 30.3 in /  1024.3 hPa Calm     90 % 0 in /  0.0 mm
23:12 59.5 °F /  15.3 °C 56.7 °F /  13.7 °C 30.3 in /  1024.3 hPa Calm     90 % 0 in /  0.0 mm
23:17 59.5 °F /  15.3 °C 56.7 °F /  13.7 °C 30.3 in /  1024.3 hPa Calm     90 % 0 in /  0.0 mm
23:22 59.4 °F /  15.2 °C 56.1 °F /  13.4 °C 30.3 in /  1024.3 hPa Calm     89 % 0 in /  0.0 mm
23:27 59.4 °F /  15.2 °C 56.5 °F /  13.6 °C 30.3 in /  1024.3 hPa Calm     90 % 0 in /  0.0 mm
23:32 59.4 °F /  15.2 °C 56.7 °F /  13.7 °C 30.3 in /  1024.3 hPa Calm     91 % 0 in /  0.0 mm
23:37 59.2 °F /  15.1 °C 56.3 °F /  13.5 °C 30.3 in /  1024.3 hPa Calm     90 % 0 in /  0.0 mm
23:42 58.8 °F /  14.9 °C 55.9 °F /  13.3 °C 30.3 in /  1024.3 hPa Calm     90 % 0 in /  0.0 mm
23:47 58.8 °F /  14.9 °C 56.1 °F /  13.4 °C 30.3 in /  1024.6 hPa Calm     91 % 0 in /  0.0 mm
23:52 58.5 °F /  14.7 °C 55.8 °F /  13.2 °C 30.3 in /  1024.3 hPa Calm     91 % 0 in /  0.0 mm
23:57 58.6 °F /  14.8 °C 55.9 °F /  13.3 °C 30.3 in /  1024.3 hPa Calm     91 % 0 in /  0.0 mm
Meteo18
Compliments of Weather Underground - 4 mb

Script developed by  Jim McMurry - jmcmurry@mwt.net Adapted for the template by  Wim van der Kuil - Leuven-Template.eu

You find our weather info also at:

European Weather Network

Weather Underground

Equipment we use:

Weather-station
Davis Vue

Weather-program
Meteohub

Weather-server
Raspberry PI 2 B+

Provider
1 and 1

Davis Vue

Meteohub

Raspberry PI 2 B+

1 and 1